sensor_id;sensor_type;location;lat;lon;timestamp;P1;durP1;ratioP1;P2;durP2;ratioP2
4268;SDS011;2148;48.554;7.834;2023-02-20T00:02:13;6.00;;;4.07;;
4268;SDS011;2148;48.554;7.834;2023-02-20T00:04:38;5.90;;;4.20;;
4268;SDS011;2148;48.554;7.834;2023-02-20T00:07:03;6.17;;;4.00;;
4268;SDS011;2148;48.554;7.834;2023-02-20T00:09:29;6.70;;;3.83;;
4268;SDS011;2148;48.554;7.834;2023-02-20T00:11:54;8.93;;;3.73;;
4268;SDS011;2148;48.554;7.834;2023-02-20T00:14:19;4.20;;;3.57;;
4268;SDS011;2148;48.554;7.834;2023-02-20T00:16:46;5.23;;;3.80;;
4268;SDS011;2148;48.554;7.834;2023-02-20T00:19:12;8.23;;;4.17;;
4268;SDS011;2148;48.554;7.834;2023-02-20T00:21:39;4.73;;;3.60;;
4268;SDS011;2148;48.554;7.834;2023-02-20T00:24:09;6.30;;;3.73;;
4268;SDS011;2148;48.554;7.834;2023-02-20T00:26:34;6.40;;;3.80;;
4268;SDS011;2148;48.554;7.834;2023-02-20T00:28:59;5.50;;;3.87;;
4268;SDS011;2148;48.554;7.834;2023-02-20T00:31:24;7.37;;;4.10;;
4268;SDS011;2148;48.554;7.834;2023-02-20T00:33:49;5.67;;;3.87;;
4268;SDS011;2148;48.554;7.834;2023-02-20T00:36:16;6.27;;;4.03;;
4268;SDS011;2148;48.554;7.834;2023-02-20T00:38:42;5.83;;;4.43;;
4268;SDS011;2148;48.554;7.834;2023-02-20T00:41:08;5.97;;;4.10;;
4268;SDS011;2148;48.554;7.834;2023-02-20T00:43:35;5.70;;;3.83;;
4268;SDS011;2148;48.554;7.834;2023-02-20T00:46:01;5.47;;;3.93;;
4268;SDS011;2148;48.554;7.834;2023-02-20T00:48:26;7.20;;;3.90;;
4268;SDS011;2148;48.554;7.834;2023-02-20T00:50:51;5.50;;;3.90;;
4268;SDS011;2148;48.554;7.834;2023-02-20T00:53:17;6.80;;;4.03;;
4268;SDS011;2148;48.554;7.834;2023-02-20T00:55:42;7.03;;;4.10;;
4268;SDS011;2148;48.554;7.834;2023-02-20T00:58:07;7.93;;;4.13;;
4268;SDS011;2148;48.554;7.834;2023-02-20T01:00:32;6.77;;;4.23;;
4268;SDS011;2148;48.554;7.834;2023-02-20T01:02:57;6.03;;;4.40;;
4268;SDS011;2148;48.554;7.834;2023-02-20T01:05:23;6.87;;;4.30;;
4268;SDS011;2148;48.554;7.834;2023-02-20T01:07:48;7.60;;;4.40;;
4268;SDS011;2148;48.554;7.834;2023-02-20T01:10:13;7.73;;;5.20;;
4268;SDS011;2148;48.554;7.834;2023-02-20T01:12:39;7.07;;;3.90;;
4268;SDS011;2148;48.554;7.834;2023-02-20T01:15:05;6.33;;;3.80;;
4268;SDS011;2148;48.554;7.834;2023-02-20T01:17:32;4.53;;;3.93;;
4268;SDS011;2148;48.554;7.834;2023-02-20T01:19:58;7.03;;;4.43;;
4268;SDS011;2148;48.554;7.834;2023-02-20T01:22:23;5.27;;;4.47;;
4268;SDS011;2148;48.554;7.834;2023-02-20T01:24:48;6.37;;;3.80;;
4268;SDS011;2148;48.554;7.834;2023-02-20T01:27:14;4.47;;;3.83;;
4268;SDS011;2148;48.554;7.834;2023-02-20T01:29:39;7.73;;;4.43;;
4268;SDS011;2148;48.554;7.834;2023-02-20T01:32:04;5.83;;;4.10;;
4268;SDS011;2148;48.554;7.834;2023-02-20T01:34:29;6.57;;;4.40;;
4268;SDS011;2148;48.554;7.834;2023-02-20T01:36:55;7.70;;;4.63;;
4268;SDS011;2148;48.554;7.834;2023-02-20T01:39:25;7.07;;;3.90;;
4268;SDS011;2148;48.554;7.834;2023-02-20T01:41:53;5.47;;;4.10;;
4268;SDS011;2148;48.554;7.834;2023-02-20T01:44:26;7.20;;;4.43;;
4268;SDS011;2148;48.554;7.834;2023-02-20T01:46:54;4.87;;;4.13;;
4268;SDS011;2148;48.554;7.834;2023-02-20T01:49:25;4.63;;;4.03;;
4268;SDS011;2148;48.554;7.834;2023-02-20T01:51:56;8.00;;;4.53;;
4268;SDS011;2148;48.554;7.834;2023-02-20T01:54:23;5.03;;;4.03;;
4268;SDS011;2148;48.554;7.834;2023-02-20T01:56:49;7.10;;;4.20;;
4268;SDS011;2148;48.554;7.834;2023-02-20T01:59:16;6.53;;;4.37;;
4268;SDS011;2148;48.554;7.834;2023-02-20T02:01:42;7.40;;;4.63;;
4268;SDS011;2148;48.554;7.834;2023-02-20T02:04:08;6.57;;;4.33;;
4268;SDS011;2148;48.554;7.834;2023-02-20T02:06:36;5.13;;;3.90;;
4268;SDS011;2148;48.554;7.834;2023-02-20T02:09:06;6.20;;;4.27;;
4268;SDS011;2148;48.554;7.834;2023-02-20T02:11:46;4.77;;;3.87;;
4268;SDS011;2148;48.554;7.834;2023-02-20T02:14:13;6.03;;;5.00;;
4268;SDS011;2148;48.554;7.834;2023-02-20T02:28:03;5.43;;;4.07;;
4268;SDS011;2148;48.554;7.834;2023-02-20T02:33:28;5.87;;;4.43;;
4268;SDS011;2148;48.554;7.834;2023-02-20T02:44:20;5.53;;;4.20;;
4268;SDS011;2148;48.554;7.834;2023-02-20T02:47:05;8.07;;;4.77;;
4268;SDS011;2148;48.554;7.834;2023-02-20T02:52:32;7.77;;;4.77;;
4268;SDS011;2148;48.554;7.834;2023-02-20T02:55:17;5.23;;;4.10;;
4268;SDS011;2148;48.554;7.834;2023-02-20T02:57:48;6.80;;;4.93;;
4268;SDS011;2148;48.554;7.834;2023-02-20T03:00:16;5.13;;;4.63;;
4268;SDS011;2148;48.554;7.834;2023-02-20T03:02:46;6.70;;;4.53;;
4268;SDS011;2148;48.554;7.834;2023-02-20T03:05:17;5.30;;;4.20;;
4268;SDS011;2148;48.554;7.834;2023-02-20T03:07:44;9.63;;;4.70;;
4268;SDS011;2148;48.554;7.834;2023-02-20T03:10:12;6.93;;;4.77;;
4268;SDS011;2148;48.554;7.834;2023-02-20T03:12:44;6.00;;;4.70;;
4268;SDS011;2148;48.554;7.834;2023-02-20T03:15:20;6.83;;;4.90;;
4268;SDS011;2148;48.554;7.834;2023-02-20T03:18:14;5.00;;;4.20;;
4268;SDS011;2148;48.554;7.834;2023-02-20T03:21:14;5.90;;;4.90;;
4268;SDS011;2148;48.554;7.834;2023-02-20T03:23:42;4.90;;;4.27;;
4268;SDS011;2148;48.554;7.834;2023-02-20T03:26:10;10.70;;;5.13;;
4268;SDS011;2148;48.554;7.834;2023-02-20T03:28:54;5.10;;;4.43;;
4268;SDS011;2148;48.554;7.834;2023-02-20T03:31:36;5.93;;;4.40;;
4268;SDS011;2148;48.554;7.834;2023-02-20T03:34:11;5.87;;;4.30;;
4268;SDS011;2148;48.554;7.834;2023-02-20T03:37:00;6.87;;;4.67;;
4268;SDS011;2148;48.554;7.834;2023-02-20T03:39:50;6.20;;;4.63;;
4268;SDS011;2148;48.554;7.834;2023-02-20T03:42:36;5.10;;;4.60;;
4268;SDS011;2148;48.554;7.834;2023-02-20T03:45:23;5.73;;;4.50;;
4268;SDS011;2148;48.554;7.834;2023-02-20T03:47:51;6.83;;;4.97;;
4268;SDS011;2148;48.554;7.834;2023-02-20T03:50:18;6.93;;;5.07;;
4268;SDS011;2148;48.554;7.834;2023-02-20T03:53:03;6.37;;;4.93;;
4268;SDS011;2148;48.554;7.834;2023-02-20T03:55:28;5.90;;;4.37;;
4268;SDS011;2148;48.554;7.834;2023-02-20T03:57:54;6.93;;;4.83;;
4268;SDS011;2148;48.554;7.834;2023-02-20T04:00:23;7.20;;;5.03;;
4268;SDS011;2148;48.554;7.834;2023-02-20T04:02:52;6.43;;;5.00;;
4268;SDS011;2148;48.554;7.834;2023-02-20T04:05:20;5.37;;;4.73;;
4268;SDS011;2148;48.554;7.834;2023-02-20T04:07:51;6.90;;;5.07;;
4268;SDS011;2148;48.554;7.834;2023-02-20T04:10:20;5.50;;;4.93;;
4268;SDS011;2148;48.554;7.834;2023-02-20T04:12:48;9.13;;;5.23;;
4268;SDS011;2148;48.554;7.834;2023-02-20T04:15:15;5.43;;;4.93;;
4268;SDS011;2148;48.554;7.834;2023-02-20T04:17:43;6.40;;;5.17;;
4268;SDS011;2148;48.554;7.834;2023-02-20T04:20:12;8.67;;;5.37;;
4268;SDS011;2148;48.554;7.834;2023-02-20T04:22:38;7.07;;;5.90;;
4268;SDS011;2148;48.554;7.834;2023-02-20T04:25:50;8.77;;;5.60;;
4268;SDS011;2148;48.554;7.834;2023-02-20T04:28:03;6.90;;;5.50;;
4268;SDS011;2148;48.554;7.834;2023-02-20T04:30:29;10.67;;;5.60;;
4268;SDS011;2148;48.554;7.834;2023-02-20T04:32:55;7.73;;;5.53;;
4268;SDS011;2148;48.554;7.834;2023-02-20T04:35:20;6.47;;;5.60;;
4268;SDS011;2148;48.554;7.834;2023-02-20T04:37:46;6.10;;;5.50;;
4268;SDS011;2148;48.554;7.834;2023-02-20T04:40:12;6.53;;;5.37;;
4268;SDS011;2148;48.554;7.834;2023-02-20T04:42:39;5.67;;;5.17;;
4268;SDS011;2148;48.554;7.834;2023-02-20T04:45:04;7.80;;;5.70;;
4268;SDS011;2148;48.554;7.834;2023-02-20T04:47:29;7.13;;;5.90;;
4268;SDS011;2148;48.554;7.834;2023-02-20T04:49:55;6.20;;;5.50;;
4268;SDS011;2148;48.554;7.834;2023-02-20T04:52:20;7.10;;;5.67;;
4268;SDS011;2148;48.554;7.834;2023-02-20T04:54:45;6.50;;;5.80;;
4268;SDS011;2148;48.554;7.834;2023-02-20T04:57:13;6.97;;;5.53;;
4268;SDS011;2148;48.554;7.834;2023-02-20T04:59:38;6.33;;;5.73;;
4268;SDS011;2148;48.554;7.834;2023-02-20T05:02:03;9.73;;;6.03;;
4268;SDS011;2148;48.554;7.834;2023-02-20T05:04:29;7.83;;;5.87;;
4268;SDS011;2148;48.554;7.834;2023-02-20T05:06:54;6.50;;;5.90;;
4268;SDS011;2148;48.554;7.834;2023-02-20T05:09:20;8.33;;;5.97;;
4268;SDS011;2148;48.554;7.834;2023-02-20T05:11:45;8.37;;;5.53;;
4268;SDS011;2148;48.554;7.834;2023-02-20T05:14:11;6.67;;;5.23;;
4268;SDS011;2148;48.554;7.834;2023-02-20T05:16:37;6.00;;;5.23;;
4268;SDS011;2148;48.554;7.834;2023-02-20T05:19:03;6.17;;;5.20;;
4268;SDS011;2148;48.554;7.834;2023-02-20T05:21:28;5.60;;;5.10;;
4268;SDS011;2148;48.554;7.834;2023-02-20T05:24:12;6.37;;;5.57;;
4268;SDS011;2148;48.554;7.834;2023-02-20T05:26:37;7.67;;;5.43;;
4268;SDS011;2148;48.554;7.834;2023-02-20T05:29:03;7.30;;;6.00;;
4268;SDS011;2148;48.554;7.834;2023-02-20T05:31:29;6.60;;;5.57;;
4268;SDS011;2148;48.554;7.834;2023-02-20T05:33:54;6.03;;;4.83;;
4268;SDS011;2148;48.554;7.834;2023-02-20T05:36:19;5.67;;;5.17;;
4268;SDS011;2148;48.554;7.834;2023-02-20T05:38:44;7.17;;;6.10;;
4268;SDS011;2148;48.554;7.834;2023-02-20T05:41:15;8.10;;;5.23;;
4268;SDS011;2148;48.554;7.834;2023-02-20T05:43:41;6.07;;;5.47;;
4268;SDS011;2148;48.554;7.834;2023-02-20T05:46:06;7.23;;;5.50;;
4268;SDS011;2148;48.554;7.834;2023-02-20T05:48:31;8.47;;;5.37;;
4268;SDS011;2148;48.554;7.834;2023-02-20T05:50:57;6.40;;;5.70;;
4268;SDS011;2148;48.554;7.834;2023-02-20T05:53:22;8.50;;;5.80;;
4268;SDS011;2148;48.554;7.834;2023-02-20T05:55:47;8.03;;;6.03;;
4268;SDS011;2148;48.554;7.834;2023-02-20T05:58:12;6.67;;;4.73;;
4268;SDS011;2148;48.554;7.834;2023-02-20T06:00:38;10.73;;;5.77;;
4268;SDS011;2148;48.554;7.834;2023-02-20T06:03:07;5.47;;;4.97;;
4268;SDS011;2148;48.554;7.834;2023-02-20T06:05:33;5.80;;;5.20;;
4268;SDS011;2148;48.554;7.834;2023-02-20T06:07:59;6.33;;;5.73;;
4268;SDS011;2148;48.554;7.834;2023-02-20T06:10:24;6.60;;;4.93;;
4268;SDS011;2148;48.554;7.834;2023-02-20T06:12:49;6.43;;;5.07;;
4268;SDS011;2148;48.554;7.834;2023-02-20T06:15:15;6.23;;;5.60;;
4268;SDS011;2148;48.554;7.834;2023-02-20T06:17:40;8.50;;;6.00;;
4268;SDS011;2148;48.554;7.834;2023-02-20T06:20:05;6.33;;;5.20;;
4268;SDS011;2148;48.554;7.834;2023-02-20T06:22:31;6.40;;;4.90;;
4268;SDS011;2148;48.554;7.834;2023-02-20T06:24:56;5.63;;;5.07;;
4268;SDS011;2148;48.554;7.834;2023-02-20T06:27:22;6.23;;;4.60;;
4268;SDS011;2148;48.554;7.834;2023-02-20T06:29:47;5.87;;;4.87;;
4268;SDS011;2148;48.554;7.834;2023-02-20T06:32:12;7.13;;;5.60;;
4268;SDS011;2148;48.554;7.834;2023-02-20T06:34:38;7.43;;;5.43;;
4268;SDS011;2148;48.554;7.834;2023-02-20T06:37:03;6.20;;;5.60;;
4268;SDS011;2148;48.554;7.834;2023-02-20T06:39:29;7.00;;;5.70;;
4268;SDS011;2148;48.554;7.834;2023-02-20T06:41:55;6.87;;;5.80;;
4268;SDS011;2148;48.554;7.834;2023-02-20T06:44:21;8.00;;;6.43;;
4268;SDS011;2148;48.554;7.834;2023-02-20T06:46:46;7.20;;;5.47;;
4268;SDS011;2148;48.554;7.834;2023-02-20T06:49:12;6.90;;;5.77;;
4268;SDS011;2148;48.554;7.834;2023-02-20T06:51:38;6.97;;;5.10;;
4268;SDS011;2148;48.554;7.834;2023-02-20T06:54:04;6.97;;;5.67;;
4268;SDS011;2148;48.554;7.834;2023-02-20T06:56:31;6.37;;;5.23;;
4268;SDS011;2148;48.554;7.834;2023-02-20T06:58:57;8.77;;;5.60;;
4268;SDS011;2148;48.554;7.834;2023-02-20T07:01:24;5.93;;;5.40;;
4268;SDS011;2148;48.554;7.834;2023-02-20T07:03:52;7.67;;;5.67;;
4268;SDS011;2148;48.554;7.834;2023-02-20T07:06:19;7.37;;;5.63;;
4268;SDS011;2148;48.554;7.834;2023-02-20T07:08:45;7.03;;;5.67;;
4268;SDS011;2148;48.554;7.834;2023-02-20T07:11:10;8.13;;;5.90;;
4268;SDS011;2148;48.554;7.834;2023-02-20T07:13:36;7.57;;;5.83;;
4268;SDS011;2148;48.554;7.834;2023-02-20T07:16:01;6.53;;;5.07;;
4268;SDS011;2148;48.554;7.834;2023-02-20T07:18:26;6.77;;;5.70;;
4268;SDS011;2148;48.554;7.834;2023-02-20T07:20:52;7.90;;;5.60;;
4268;SDS011;2148;48.554;7.834;2023-02-20T07:23:18;8.43;;;5.20;;
4268;SDS011;2148;48.554;7.834;2023-02-20T07:25:43;7.47;;;5.30;;
4268;SDS011;2148;48.554;7.834;2023-02-20T07:28:09;7.53;;;5.10;;
4268;SDS011;2148;48.554;7.834;2023-02-20T07:30:34;5.97;;;5.30;;
4268;SDS011;2148;48.554;7.834;2023-02-20T07:32:59;5.87;;;5.27;;
4268;SDS011;2148;48.554;7.834;2023-02-20T07:35:25;8.60;;;5.53;;
4268;SDS011;2148;48.554;7.834;2023-02-20T07:37:50;7.37;;;5.10;;
4268;SDS011;2148;48.554;7.834;2023-02-20T07:40:15;5.47;;;4.93;;
4268;SDS011;2148;48.554;7.834;2023-02-20T07:42:40;6.60;;;5.90;;
4268;SDS011;2148;48.554;7.834;2023-02-20T07:45:06;8.30;;;6.00;;
4268;SDS011;2148;48.554;7.834;2023-02-20T07:47:31;10.47;;;6.43;;
4268;SDS011;2148;48.554;7.834;2023-02-20T07:49:56;6.83;;;5.57;;
4268;SDS011;2148;48.554;7.834;2023-02-20T07:52:22;7.63;;;5.83;;
4268;SDS011;2148;48.554;7.834;2023-02-20T07:54:47;6.87;;;6.17;;
4268;SDS011;2148;48.554;7.834;2023-02-20T07:57:13;7.00;;;5.33;;
4268;SDS011;2148;48.554;7.834;2023-02-20T07:59:39;8.70;;;5.47;;
4268;SDS011;2148;48.554;7.834;2023-02-20T08:02:04;5.97;;;4.20;;
4268;SDS011;2148;48.554;7.834;2023-02-20T08:04:30;5.97;;;5.37;;
4268;SDS011;2148;48.554;7.834;2023-02-20T08:06:55;8.03;;;6.10;;
4268;SDS011;2148;48.554;7.834;2023-02-20T08:09:20;5.83;;;5.20;;
4268;SDS011;2148;48.554;7.834;2023-02-20T08:11:46;5.63;;;4.97;;
4268;SDS011;2148;48.554;7.834;2023-02-20T08:14:12;7.43;;;5.57;;
4268;SDS011;2148;48.554;7.834;2023-02-20T08:16:37;6.83;;;5.67;;
4268;SDS011;2148;48.554;7.834;2023-02-20T08:19:02;7.27;;;5.30;;
4268;SDS011;2148;48.554;7.834;2023-02-20T08:21:28;6.57;;;5.37;;
4268;SDS011;2148;48.554;7.834;2023-02-20T08:23:53;6.27;;;4.60;;
4268;SDS011;2148;48.554;7.834;2023-02-20T08:26:19;8.43;;;5.63;;
4268;SDS011;2148;48.554;7.834;2023-02-20T08:28:45;8.23;;;5.37;;
4268;SDS011;2148;48.554;7.834;2023-02-20T08:31:11;9.47;;;7.50;;
4268;SDS011;2148;48.554;7.834;2023-02-20T08:33:37;7.90;;;5.70;;
4268;SDS011;2148;48.554;7.834;2023-02-20T08:36:02;8.53;;;5.60;;
4268;SDS011;2148;48.554;7.834;2023-02-20T08:38:28;6.23;;;5.63;;
4268;SDS011;2148;48.554;7.834;2023-02-20T08:40:55;6.63;;;5.87;;
4268;SDS011;2148;48.554;7.834;2023-02-20T08:43:21;6.93;;;4.83;;
4268;SDS011;2148;48.554;7.834;2023-02-20T08:45:47;8.00;;;5.97;;
4268;SDS011;2148;48.554;7.834;2023-02-20T08:48:12;9.37;;;6.50;;
4268;SDS011;2148;48.554;7.834;2023-02-20T08:50:38;8.00;;;5.73;;
4268;SDS011;2148;48.554;7.834;2023-02-20T08:53:03;6.17;;;4.10;;
4268;SDS011;2148;48.554;7.834;2023-02-20T08:55:28;7.67;;;6.00;;
4268;SDS011;2148;48.554;7.834;2023-02-20T08:57:53;7.23;;;5.70;;
4268;SDS011;2148;48.554;7.834;2023-02-20T09:00:19;5.73;;;4.07;;
4268;SDS011;2148;48.554;7.834;2023-02-20T09:02:46;7.90;;;6.50;;
4268;SDS011;2148;48.554;7.834;2023-02-20T09:05:11;6.73;;;5.97;;
4268;SDS011;2148;48.554;7.834;2023-02-20T09:07:36;10.93;;;6.23;;
4268;SDS011;2148;48.554;7.834;2023-02-20T09:10:02;6.30;;;5.53;;
4268;SDS011;2148;48.554;7.834;2023-02-20T09:12:27;6.33;;;4.97;;
4268;SDS011;2148;48.554;7.834;2023-02-20T09:14:54;5.67;;;4.97;;
4268;SDS011;2148;48.554;7.834;2023-02-20T09:17:20;6.00;;;4.90;;
4268;SDS011;2148;48.554;7.834;2023-02-20T09:19:45;7.50;;;4.37;;
4268;SDS011;2148;48.554;7.834;2023-02-20T09:22:10;10.00;;;5.77;;
4268;SDS011;2148;48.554;7.834;2023-02-20T09:24:35;6.50;;;5.10;;
4268;SDS011;2148;48.554;7.834;2023-02-20T09:27:01;5.67;;;4.80;;
4268;SDS011;2148;48.554;7.834;2023-02-20T09:29:30;6.90;;;5.70;;
4268;SDS011;2148;48.554;7.834;2023-02-20T09:31:55;6.83;;;5.77;;
4268;SDS011;2148;48.554;7.834;2023-02-20T09:34:21;5.73;;;4.33;;
4268;SDS011;2148;48.554;7.834;2023-02-20T09:36:46;7.13;;;4.40;;
4268;SDS011;2148;48.554;7.834;2023-02-20T09:39:11;6.47;;;3.53;;
4268;SDS011;2148;48.554;7.834;2023-02-20T09:41:55;7.10;;;4.70;;
4268;SDS011;2148;48.554;7.834;2023-02-20T09:47:39;5.10;;;4.30;;
4268;SDS011;2148;48.554;7.834;2023-02-20T09:50:12;2.57;;;2.37;;
4268;SDS011;2148;48.554;7.834;2023-02-20T09:52:40;6.70;;;4.07;;
4268;SDS011;2148;48.554;7.834;2023-02-20T09:55:13;5.07;;;4.53;;
4268;SDS011;2148;48.554;7.834;2023-02-20T09:57:43;6.97;;;4.53;;
4268;SDS011;2148;48.554;7.834;2023-02-20T10:00:12;7.30;;;4.93;;
4268;SDS011;2148;48.554;7.834;2023-02-20T10:02:53;8.47;;;4.80;;
4268;SDS011;2148;48.554;7.834;2023-02-20T10:05:23;6.33;;;4.20;;
4268;SDS011;2148;48.554;7.834;2023-02-20T10:07:50;5.73;;;3.90;;
4268;SDS011;2148;48.554;7.834;2023-02-20T10:10:18;7.37;;;3.73;;
4268;SDS011;2148;48.554;7.834;2023-02-20T10:12:55;9.80;;;4.90;;
4268;SDS011;2148;48.554;7.834;2023-02-20T10:15:33;7.00;;;3.80;;
4268;SDS011;2148;48.554;7.834;2023-02-20T10:20:57;4.67;;;3.47;;
4268;SDS011;2148;48.554;7.834;2023-02-20T10:23:43;5.80;;;4.27;;
4268;SDS011;2148;48.554;7.834;2023-02-20T10:26:21;5.90;;;3.57;;
4268;SDS011;2148;48.554;7.834;2023-02-20T10:28:48;3.33;;;2.20;;
4268;SDS011;2148;48.554;7.834;2023-02-20T10:33:58;4.73;;;3.40;;
4268;SDS011;2148;48.554;7.834;2023-02-20T10:36:29;5.80;;;4.60;;
4268;SDS011;2148;48.554;7.834;2023-02-20T10:39:04;4.50;;;3.30;;
4268;SDS011;2148;48.554;7.834;2023-02-20T10:41:34;3.83;;;3.33;;
4268;SDS011;2148;48.554;7.834;2023-02-20T10:44:07;4.47;;;3.37;;
4268;SDS011;2148;48.554;7.834;2023-02-20T10:46:43;4.03;;;3.60;;
4268;SDS011;2148;48.554;7.834;2023-02-20T10:49:17;5.17;;;4.07;;
4268;SDS011;2148;48.554;7.834;2023-02-20T10:51:47;4.63;;;3.67;;
4268;SDS011;2148;48.554;7.834;2023-02-20T10:54:16;3.97;;;2.90;;
4268;SDS011;2148;48.554;7.834;2023-02-20T10:56:47;5.40;;;3.90;;
4268;SDS011;2148;48.554;7.834;2023-02-20T10:59:30;7.57;;;3.50;;
4268;SDS011;2148;48.554;7.834;2023-02-20T11:02:10;4.40;;;3.23;;
4268;SDS011;2148;48.554;7.834;2023-02-20T11:04:41;6.20;;;4.07;;
4268;SDS011;2148;48.554;7.834;2023-02-20T11:07:15;4.47;;;3.60;;
4268;SDS011;2148;48.554;7.834;2023-02-20T11:09:43;5.50;;;3.67;;
4268;SDS011;2148;48.554;7.834;2023-02-20T11:12:17;4.80;;;3.80;;
4268;SDS011;2148;48.554;7.834;2023-02-20T11:14:46;4.27;;;3.27;;
4268;SDS011;2148;48.554;7.834;2023-02-20T11:17:19;8.00;;;3.73;;
4268;SDS011;2148;48.554;7.834;2023-02-20T11:19:46;5.37;;;4.03;;
4268;SDS011;2148;48.554;7.834;2023-02-20T11:22:18;5.83;;;3.63;;
4268;SDS011;2148;48.554;7.834;2023-02-20T11:25:15;4.70;;;4.10;;
4268;SDS011;2148;48.554;7.834;2023-02-20T11:28:18;7.87;;;4.70;;
4268;SDS011;2148;48.554;7.834;2023-02-20T11:30:46;6.23;;;4.30;;
4268;SDS011;2148;48.554;7.834;2023-02-20T11:35:39;6.00;;;4.10;;
4268;SDS011;2148;48.554;7.834;2023-02-20T11:43:21;7.47;;;4.63;;
4268;SDS011;2148;48.554;7.834;2023-02-20T11:45:48;5.23;;;3.73;;
4268;SDS011;2148;48.554;7.834;2023-02-20T11:48:14;7.10;;;3.83;;
4268;SDS011;2148;48.554;7.834;2023-02-20T11:53:16;5.73;;;4.37;;
4268;SDS011;2148;48.554;7.834;2023-02-20T11:55:41;5.80;;;4.20;;
4268;SDS011;2148;48.554;7.834;2023-02-20T11:58:09;4.93;;;3.40;;
4268;SDS011;2148;48.554;7.834;2023-02-20T12:00:45;5.00;;;3.70;;
4268;SDS011;2148;48.554;7.834;2023-02-20T12:03:13;4.67;;;3.90;;
4268;SDS011;2148;48.554;7.834;2023-02-20T12:05:40;5.50;;;3.53;;
4268;SDS011;2148;48.554;7.834;2023-02-20T12:11:20;4.37;;;3.33;;
4268;SDS011;2148;48.554;7.834;2023-02-20T12:13:47;6.33;;;4.17;;
4268;SDS011;2148;48.554;7.834;2023-02-20T12:18:47;8.17;;;3.33;;
4268;SDS011;2148;48.554;7.834;2023-02-20T12:32:56;6.20;;;3.67;;
4268;SDS011;2148;48.554;7.834;2023-02-20T12:35:34;4.63;;;3.33;;
4268;SDS011;2148;48.554;7.834;2023-02-20T12:38:12;7.07;;;4.07;;
4268;SDS011;2148;48.554;7.834;2023-02-20T12:43:26;4.83;;;3.30;;
4268;SDS011;2148;48.554;7.834;2023-02-20T12:51:43;6.77;;;4.00;;
4268;SDS011;2148;48.554;7.834;2023-02-20T12:54:18;5.13;;;4.20;;
4268;SDS011;2148;48.554;7.834;2023-02-20T12:59:55;6.90;;;4.00;;
4268;SDS011;2148;48.554;7.834;2023-02-20T13:02:36;6.00;;;3.50;;
4268;SDS011;2148;48.554;7.834;2023-02-20T13:05:07;6.73;;;4.03;;
4268;SDS011;2148;48.554;7.834;2023-02-20T13:07:50;4.43;;;3.33;;
4268;SDS011;2148;48.554;7.834;2023-02-20T13:12:44;5.30;;;3.47;;
4268;SDS011;2148;48.554;7.834;2023-02-20T13:20:52;3.90;;;3.30;;
4268;SDS011;2148;48.554;7.834;2023-02-20T13:25:47;6.47;;;3.20;;
4268;SDS011;2148;48.554;7.834;2023-02-20T13:30:44;6.10;;;3.63;;
4268;SDS011;2148;48.554;7.834;2023-02-20T13:33:20;7.40;;;3.80;;
4268;SDS011;2148;48.554;7.834;2023-02-20T13:35:51;5.07;;;3.03;;
4268;SDS011;2148;48.554;7.834;2023-02-20T13:38:18;3.13;;;2.73;;
4268;SDS011;2148;48.554;7.834;2023-02-20T13:58:43;5.37;;;3.40;;
4268;SDS011;2148;48.554;7.834;2023-02-20T14:01:09;4.63;;;3.40;;
4268;SDS011;2148;48.554;7.834;2023-02-20T14:03:34;4.57;;;3.20;;
4268;SDS011;2148;48.554;7.834;2023-02-20T14:08:39;6.57;;;3.00;;
4268;SDS011;2148;48.554;7.834;2023-02-20T14:11:11;5.10;;;2.87;;
4268;SDS011;2148;48.554;7.834;2023-02-20T14:13:41;3.67;;;2.80;;
4268;SDS011;2148;48.554;7.834;2023-02-20T14:16:25;5.07;;;3.03;;
4268;SDS011;2148;48.554;7.834;2023-02-20T14:18:56;4.93;;;2.80;;
4268;SDS011;2148;48.554;7.834;2023-02-20T14:21:22;4.53;;;3.27;;
4268;SDS011;2148;48.554;7.834;2023-02-20T14:23:49;5.17;;;3.13;;
4268;SDS011;2148;48.554;7.834;2023-02-20T14:26:25;3.90;;;2.87;;
4268;SDS011;2148;48.554;7.834;2023-02-20T14:28:54;3.53;;;2.97;;
4268;SDS011;2148;48.554;7.834;2023-02-20T14:31:29;6.47;;;4.17;;
4268;SDS011;2148;48.554;7.834;2023-02-20T14:34:09;7.10;;;3.50;;
4268;SDS011;2148;48.554;7.834;2023-02-20T14:36:42;3.03;;;2.73;;
4268;SDS011;2148;48.554;7.834;2023-02-20T14:39:26;3.37;;;2.73;;
4268;SDS011;2148;48.554;7.834;2023-02-20T14:41:58;3.33;;;2.30;;
4268;SDS011;2148;48.554;7.834;2023-02-20T14:44:25;4.00;;;2.60;;
4268;SDS011;2148;48.554;7.834;2023-02-20T14:46:57;5.33;;;2.73;;
4268;SDS011;2148;48.554;7.834;2023-02-20T14:49:27;3.70;;;2.60;;
4268;SDS011;2148;48.554;7.834;2023-02-20T14:54:39;4.43;;;2.73;;
4268;SDS011;2148;48.554;7.834;2023-02-20T14:57:05;4.90;;;2.93;;
4268;SDS011;2148;48.554;7.834;2023-02-20T14:59:32;3.80;;;2.60;;
4268;SDS011;2148;48.554;7.834;2023-02-20T15:01:59;5.13;;;2.90;;
4268;SDS011;2148;48.554;7.834;2023-02-20T15:04:26;5.20;;;2.70;;
4268;SDS011;2148;48.554;7.834;2023-02-20T15:06:54;4.70;;;2.87;;
4268;SDS011;2148;48.554;7.834;2023-02-20T15:09:34;2.23;;;2.00;;
4268;SDS011;2148;48.554;7.834;2023-02-20T15:12:00;4.43;;;2.70;;
4268;SDS011;2148;48.554;7.834;2023-02-20T15:14:30;4.40;;;2.80;;
4268;SDS011;2148;48.554;7.834;2023-02-20T15:17:06;6.23;;;2.53;;
4268;SDS011;2148;48.554;7.834;2023-02-20T15:19:48;4.43;;;2.87;;
4268;SDS011;2148;48.554;7.834;2023-02-20T15:22:33;3.33;;;2.27;;
4268;SDS011;2148;48.554;7.834;2023-02-20T15:25:14;5.43;;;2.77;;
4268;SDS011;2148;48.554;7.834;2023-02-20T15:33:35;4.47;;;2.60;;
4268;SDS011;2148;48.554;7.834;2023-02-20T15:36:03;2.47;;;2.27;;
4268;SDS011;2148;48.554;7.834;2023-02-20T15:38:30;4.07;;;2.67;;
4268;SDS011;2148;48.554;7.834;2023-02-20T15:40:57;3.37;;;2.63;;
4268;SDS011;2148;48.554;7.834;2023-02-20T15:43:23;3.97;;;2.40;;
4268;SDS011;2148;48.554;7.834;2023-02-20T15:45:49;5.20;;;2.70;;
4268;SDS011;2148;48.554;7.834;2023-02-20T15:48:14;4.50;;;2.63;;
4268;SDS011;2148;48.554;7.834;2023-02-20T15:50:40;3.10;;;2.70;;
4268;SDS011;2148;48.554;7.834;2023-02-20T15:53:05;3.63;;;2.40;;
4268;SDS011;2148;48.554;7.834;2023-02-20T15:55:33;4.37;;;2.63;;
4268;SDS011;2148;48.554;7.834;2023-02-20T15:57:59;3.53;;;2.67;;
4268;SDS011;2148;48.554;7.834;2023-02-20T16:00:31;3.57;;;2.70;;
4268;SDS011;2148;48.554;7.834;2023-02-20T16:02:57;4.47;;;2.47;;
4268;SDS011;2148;48.554;7.834;2023-02-20T16:05:26;4.70;;;2.50;;
4268;SDS011;2148;48.554;7.834;2023-02-20T16:07:51;5.63;;;2.87;;
4268;SDS011;2148;48.554;7.834;2023-02-20T16:10:18;4.57;;;2.60;;
4268;SDS011;2148;48.554;7.834;2023-02-20T16:12:44;3.83;;;2.30;;
4268;SDS011;2148;48.554;7.834;2023-02-20T16:15:13;3.37;;;2.33;;
4268;SDS011;2148;48.554;7.834;2023-02-20T16:17:41;4.13;;;2.23;;
4268;SDS011;2148;48.554;7.834;2023-02-20T16:20:16;4.47;;;2.47;;
4268;SDS011;2148;48.554;7.834;2023-02-20T16:22:51;3.50;;;2.70;;
4268;SDS011;2148;48.554;7.834;2023-02-20T16:25:17;4.60;;;3.10;;
4268;SDS011;2148;48.554;7.834;2023-02-20T16:27:44;6.47;;;3.00;;
4268;SDS011;2148;48.554;7.834;2023-02-20T16:30:16;5.40;;;2.50;;
4268;SDS011;2148;48.554;7.834;2023-02-20T16:32:44;4.50;;;2.43;;
4268;SDS011;2148;48.554;7.834;2023-02-20T16:35:12;3.53;;;2.33;;
4268;SDS011;2148;48.554;7.834;2023-02-20T16:37:38;5.40;;;2.50;;
4268;SDS011;2148;48.554;7.834;2023-02-20T16:40:04;4.43;;;2.70;;
4268;SDS011;2148;48.554;7.834;2023-02-20T16:42:34;4.47;;;2.53;;
4268;SDS011;2148;48.554;7.834;2023-02-20T16:45:02;4.03;;;2.77;;
4268;SDS011;2148;48.554;7.834;2023-02-20T16:47:34;4.20;;;2.83;;
4268;SDS011;2148;48.554;7.834;2023-02-20T16:50:00;4.73;;;2.80;;
4268;SDS011;2148;48.554;7.834;2023-02-20T16:52:30;3.27;;;2.50;;
4268;SDS011;2148;48.554;7.834;2023-02-20T16:54:57;3.37;;;2.50;;
4268;SDS011;2148;48.554;7.834;2023-02-20T16:57:23;4.20;;;2.80;;
4268;SDS011;2148;48.554;7.834;2023-02-20T16:59:53;3.47;;;2.43;;
4268;SDS011;2148;48.554;7.834;2023-02-20T17:02:22;5.27;;;3.53;;
4268;SDS011;2148;48.554;7.834;2023-02-20T17:04:48;3.60;;;3.03;;
4268;SDS011;2148;48.554;7.834;2023-02-20T17:07:15;4.10;;;2.97;;
4268;SDS011;2148;48.554;7.834;2023-02-20T17:09:40;4.23;;;2.70;;
4268;SDS011;2148;48.554;7.834;2023-02-20T17:12:06;4.10;;;2.17;;
4268;SDS011;2148;48.554;7.834;2023-02-20T17:14:31;5.67;;;2.20;;
4268;SDS011;2148;48.554;7.834;2023-02-20T17:16:57;3.00;;;2.20;;
4268;SDS011;2148;48.554;7.834;2023-02-20T17:19:22;3.67;;;2.57;;
4268;SDS011;2148;48.554;7.834;2023-02-20T17:21:48;5.07;;;2.50;;